Time;durP1;ratioP1;P1;durP2;ratioP2;P2;SDS_P1;SDS_P2;PMS_P1;PMS_P2;Temp;Humidity;BMP_temperature;BMP_pressure;BME280_temperature;BME280_humidity;BME280_pressure;Samples;Min_cycle;Max_cycle;Signal;HPM_P1;HPM_P2
2021/07/01 00:00:14;;;;;;;15.63;8.82;;;19.60;99.90;;;;;;5032458;28;20075;-63
2021/07/01 00:02:39;;;;;;;14.50;9.20;;;19.60;99.90;;;;;;5033372;28;20725;-63
2021/07/01 00:05:07;;;;;;;15.45;9.65;;;19.60;99.90;;;;;;5032545;28;20030;-63
2021/07/01 00:07:32;;;;;;;16.70;9.68;;;19.60;99.90;;;;;;5033008;28;20037;-63
2021/07/01 00:09:58;;;;;;;15.70;8.88;;;19.60;99.90;;;;;;5032932;28;20025;-63
2021/07/01 00:12:23;;;;;;;14.30;8.50;;;19.60;99.90;;;;;;5032920;28;20031;-63
2021/07/01 00:14:49;;;;;;;14.02;8.57;;;19.60;99.90;;;;;;5031959;28;20053;-62
2021/07/01 00:17:15;;;;;;;14.90;8.02;;;19.60;99.90;;;;;;5033039;28;20045;-62
2021/07/01 00:19:40;;;;;;;12.93;8.25;;;19.50;99.90;;;;;;5032703;28;20025;-63
2021/07/01 00:22:06;;;;;;;13.32;7.85;;;19.50;99.90;;;;;;5032885;28;20034;-63
2021/07/01 00:24:31;;;;;;;14.63;7.93;;;19.60;99.90;;;;;;5032438;28;20072;-63
2021/07/01 00:26:57;;;;;;;14.45;8.60;;;19.60;99.90;;;;;;5032873;28;20021;-63
2021/07/01 00:29:22;;;;;;;13.30;8.02;;;19.60;99.90;;;;;;5032708;28;20031;-62
2021/07/01 00:31:48;;;;;;;12.85;8.10;;;19.50;99.90;;;;;;5031807;28;20064;-63
2021/07/01 00:34:14;;;;;;;17.08;7.93;;;19.60;99.90;;;;;;5032602;28;20036;-63
2021/07/01 00:36:39;;;;;;;13.55;8.20;;;19.50;99.90;;;;;;5032546;28;20721;-63
2021/07/01 00:39:05;;;;;;;13.25;8.18;;;19.60;99.90;;;;;;5032713;28;20064;-63
2021/07/01 00:41:31;;;;;;;17.33;9.25;;;19.60;99.90;;;;;;5032566;28;20033;-63
2021/07/01 00:43:57;;;;;;;21.67;10.57;;;19.50;99.90;;;;;;5032502;28;20423;-63
2021/07/01 00:46:22;;;;;;;18.27;9.57;;;19.50;99.90;;;;;;5031659;28;20025;-62
2021/07/01 00:48:48;;;;;;;21.15;9.73;;;19.50;99.90;;;;;;5032418;28;20532;-63
2021/07/01 00:51:14;;;;;;;17.23;9.80;;;19.50;99.90;;;;;;5032489;28;20030;-63
2021/07/01 00:53:40;;;;;;;19.23;10.02;;;19.50;99.90;;;;;;5032366;28;20021;-63
2021/07/01 00:56:07;;;;;;;18.55;9.23;;;19.50;99.90;;;;;;5031197;28;20484;-62
2021/07/01 00:58:34;;;;;;;12.77;8.68;;;19.50;99.90;;;;;;5032276;28;20021;-63
2021/07/01 01:01:04;;;;;;;11.82;7.50;;;19.40;99.90;;;;;;5031427;28;20042;-63
2021/07/01 01:03:31;;;;;;;17.23;8.10;;;19.40;99.90;;;;;;5032278;28;20496;-63
2021/07/01 01:05:57;;;;;;;14.63;8.68;;;19.40;99.90;;;;;;5032454;28;20029;-62
2021/07/01 01:08:23;;;;;;;17.02;8.75;;;19.50;99.90;;;;;;5032350;28;20036;-62
2021/07/01 01:10:48;;;;;;;14.35;8.30;;;19.40;99.90;;;;;;5032171;28;20018;-63
2021/07/01 01:13:25;;;;;;;14.73;9.32;;;19.30;99.90;;;;;;5032169;28;20032;-63
2021/07/01 01:15:57;;;;;;;11.40;6.63;;;19.40;99.90;;;;;;5031815;28;20034;-63
2021/07/01 01:18:23;;;;;;;16.58;8.68;;;19.30;99.90;;;;;;5036082;28;20500;-63
2021/07/01 01:20:49;;;;;;;15.43;8.60;;;19.30;99.90;;;;;;5036519;28;20029;-63
2021/07/01 01:23:15;;;;;;;13.70;7.97;;;19.30;99.90;;;;;;5036158;28;20053;-63
2021/07/01 01:25:48;;;;;;;14.05;7.53;;;19.30;99.90;;;;;;5035885;28;20068;-63
2021/07/01 01:28:14;;;;;;;15.30;8.60;;;19.30;99.90;;;;;;5036108;28;20060;-63
2021/07/01 01:30:40;;;;;;;13.68;7.60;;;19.30;99.90;;;;;;5035067;28;20030;-63
2021/07/01 01:33:07;;;;;;;10.88;7.25;;;19.30;99.90;;;;;;5036005;28;20439;-63
2021/07/01 01:35:34;;;;;;;10.30;6.85;;;19.30;99.90;;;;;;5035884;28;20021;-62
2021/07/01 01:38:00;;;;;;;13.60;7.28;;;19.30;99.90;;;;;;5036022;28;20025;-64
2021/07/01 01:40:25;;;;;;;10.93;6.95;;;19.30;99.90;;;;;;5035795;28;20026;-63
2021/07/01 01:42:51;;;;;;;9.65;6.90;;;19.30;99.90;;;;;;5035842;28;20226;-63
2021/07/01 01:45:16;;;;;;;10.07;6.43;;;19.30;99.90;;;;;;5034580;28;20488;-63
2021/07/01 01:47:47;;;;;;;10.02;5.60;;;19.30;99.90;;;;;;5035750;28;20038;-63
2021/07/01 01:50:16;;;;;;;9.35;5.88;;;19.30;99.90;;;;;;5035746;28;20029;-62
2021/07/01 01:52:42;;;;;;;10.90;7.60;;;19.30;99.90;;;;;;5035577;28;20032;-63
2021/07/01 01:55:10;;;;;;;12.63;6.63;;;19.30;99.90;;;;;;5035519;28;20026;-63
2021/07/01 01:57:35;;;;;;;10.98;7.25;;;19.30;99.90;;;;;;5035532;28;20049;-63
2021/07/01 02:00:03;;;;;;;9.27;6.53;;;19.30;99.90;;;;;;5034507;28;20421;-62
2021/07/01 02:02:28;;;;;;;14.98;7.05;;;19.30;99.90;;;;;;5035422;28;20136;-61
2021/07/01 02:04:54;;;;;;;10.18;6.47;;;19.30;99.90;;;;;;5035161;28;20129;-63
2021/07/01 02:07:19;;;;;;;9.77;6.07;;;19.30;99.90;;;;;;5035513;28;20025;-63
2021/07/01 02:09:45;;;;;;;8.15;5.97;;;19.20;99.90;;;;;;5035235;28;20029;-62
2021/07/01 02:12:10;;;;;;;8.82;6.28;;;19.20;99.90;;;;;;5035278;28;20071;-63
2021/07/01 02:14:36;;;;;;;12.10;6.75;;;19.20;99.90;;;;;;5034431;28;20335;-63
2021/07/01 02:17:02;;;;;;;10.68;6.68;;;19.30;99.90;;;;;;5034924;28;20029;-63
2021/07/01 02:19:27;;;;;;;10.13;6.90;;;19.30;99.90;;;;;;5033978;28;20040;-63
2021/07/01 02:21:53;;;;;;;9.40;6.38;;;19.30;99.90;;;;;;5035180;28;20109;-63
2021/07/01 02:24:18;;;;;;;14.52;7.95;;;19.30;99.90;;;;;;5034955;28;20044;-63
2021/07/01 02:26:44;;;;;;;13.43;7.63;;;19.30;99.90;;;;;;5034612;28;20441;-62
2021/07/01 02:29:09;;;;;;;16.15;8.55;;;19.30;99.90;;;;;;5034817;28;20096;-63
2021/07/01 02:31:35;;;;;;;11.60;7.13;;;19.30;99.90;;;;;;5034144;28;20491;-62
2021/07/01 02:34:00;;;;;;;13.43;8.98;;;19.30;99.90;;;;;;5034810;28;20032;-63
2021/07/01 02:36:26;;;;;;;14.60;8.13;;;19.30;99.90;;;;;;5033633;28;20121;-62
2021/07/01 02:38:51;;;;;;;12.18;7.03;;;19.20;99.90;;;;;;5034733;28;20465;-63
2021/07/01 02:41:17;;;;;;;13.35;8.55;;;19.20;99.90;;;;;;5034876;28;20464;-62
2021/07/01 02:43:42;;;;;;;11.65;7.97;;;19.20;99.90;;;;;;5034270;28;20022;-63
2021/07/01 02:46:08;;;;;;;11.18;6.68;;;19.20;99.90;;;;;;5033782;28;20022;-62
2021/07/01 02:48:33;;;;;;;13.27;6.57;;;19.20;99.90;;;;;;5034620;28;20018;-64
2021/07/01 02:50:59;;;;;;;10.38;6.70;;;19.20;99.90;;;;;;5034563;28;20477;-63
2021/07/01 02:53:24;;;;;;;10.32;6.05;;;19.20;99.90;;;;;;5034670;28;20061;-63
2021/07/01 02:55:50;;;;;;;10.63;6.72;;;19.20;99.90;;;;;;5034358;28;20063;-63
2021/07/01 02:58:15;;;;;;;11.13;5.75;;;19.20;99.90;;;;;;5034335;28;20030;-62
2021/07/01 03:00:41;;;;;;;8.40;4.90;;;19.20;99.90;;;;;;5033185;28;20601;-62
2021/07/01 03:03:06;;;;;;;9.93;6.05;;;19.20;99.90;;;;;;5033142;28;20040;-63
2021/07/01 03:05:32;;;;;;;11.88;6.32;;;19.20;99.90;;;;;;5034141;28;20037;-63
2021/07/01 03:07:57;;;;;;;10.48;6.10;;;19.20;99.90;;;;;;5033978;28;20101;-63
2021/07/01 03:10:23;;;;;;;15.80;6.65;;;19.10;99.90;;;;;;5034161;28;20465;-62
2021/07/01 03:12:48;;;;;;;9.85;5.88;;;19.10;99.90;;;;;;5033917;28;20022;-63
2021/07/01 03:15:14;;;;;;;8.82;5.75;;;19.10;99.90;;;;;;5033116;28;20072;-62
2021/07/01 03:17:39;;;;;;;8.38;6.13;;;19.10;99.90;;;;;;5034050;28;20108;-63
2021/07/01 03:20:06;;;;;;;8.93;5.13;;;19.10;99.90;;;;;;5032655;28;20083;-63
2021/07/01 03:22:32;;;;;;;8.50;5.63;;;19.10;99.90;;;;;;5033895;28;20069;-63
2021/07/01 03:24:57;;;;;;;8.13;5.15;;;19.10;99.90;;;;;;5033649;28;20057;-63
2021/07/01 03:27:23;;;;;;;9.13;4.50;;;19.10;99.90;;;;;;5033888;28;20429;-63
2021/07/01 03:29:48;;;;;;;8.00;4.13;;;19.10;99.90;;;;;;5032623;28;20033;-63
2021/07/01 03:32:14;;;;;;;6.68;4.57;;;19.10;99.90;;;;;;5033994;28;20021;-63
2021/07/01 03:34:39;;;;;;;6.30;4.32;;;19.10;99.90;;;;;;5033689;28;20412;-63
2021/07/01 03:37:05;;;;;;;6.70;4.30;;;19.00;99.90;;;;;;5033575;28;20038;-63
2021/07/01 03:39:31;;;;;;;5.72;3.70;;;19.10;99.90;;;;;;5033041;28;20442;-61
2021/07/01 03:41:56;;;;;;;3.85;3.08;;;19.00;99.90;;;;;;5033694;28;20097;-63
2021/07/01 03:44:22;;;;;;;4.10;2.70;;;19.00;99.90;;;;;;5033209;28;20388;-63
2021/07/01 03:46:47;;;;;;;3.47;2.47;;;19.00;99.90;;;;;;5032584;28;20029;-63
2021/07/01 03:49:13;;;;;;;2.80;2.20;;;18.90;99.90;;;;;;5033438;28;20033;-63
2021/07/01 03:51:39;;;;;;;3.13;2.25;;;18.90;99.90;;;;;;5033571;28;20140;-62
2021/07/01 03:54:05;;;;;;;2.88;2.38;;;18.90;99.90;;;;;;5033315;28;20584;-62
2021/07/01 03:56:41;;;;;;;2.90;2.10;;;18.90;99.90;;;;;;5033463;28;20417;-63
2021/07/01 03:59:08;;;;;;;2.35;1.63;;;18.90;99.90;;;;;;5033065;28;20120;-63
2021/07/01 04:01:34;;;;;;;1.70;1.58;;;18.80;99.90;;;;;;5032333;28;20037;-63
2021/07/01 04:03:59;;;;;;;2.40;1.60;;;18.80;99.90;;;;;;5029657;28;20429;-63
2021/07/01 04:06:25;;;;;;;1.75;1.40;;;18.80;99.90;;;;;;5033093;28;20021;-63
2021/07/01 04:08:50;;;;;;;2.03;1.20;;;18.80;99.90;;;;;;5032964;28;20140;-63
2021/07/01 04:11:16;;;;;;;3.30;1.55;;;18.80;99.90;;;;;;5031560;28;20021;-63
2021/07/01 04:13:41;;;;;;;1.20;1.10;;;18.80;99.90;;;;;;5032742;28;20099;-63
2021/07/01 04:16:07;;;;;;;1.27;1.10;;;18.70;99.90;;;;;;5031683;28;20032;-63
2021/07/01 04:18:32;;;;;;;1.23;1.02;;;18.70;99.90;;;;;;5032929;28;20075;-63
2021/07/01 04:20:58;;;;;;;1.50;1.00;;;18.70;99.90;;;;;;5032699;28;20362;-63
2021/07/01 04:23:23;;;;;;;1.15;1.02;;;18.70;99.90;;;;;;5032838;28;20017;-63
2021/07/01 04:25:50;;;;;;;1.10;1.00;;;18.70;99.90;;;;;;5029550;28;20519;-66
2021/07/01 04:28:16;;;;;;;1.73;1.23;;;18.60;99.90;;;;;;5032768;28;20104;-66
2021/07/01 04:30:42;;;;;;;1.42;1.20;;;18.60;99.90;;;;;;5031768;28;20088;-65
2021/07/01 04:33:07;;;;;;;0.95;0.90;;;18.60;99.90;;;;;;5032723;28;20032;-65
2021/07/01 04:35:33;;;;;;;1.05;0.95;;;18.60;99.90;;;;;;5032509;28;20026;-65
2021/07/01 04:37:58;;;;;;;1.48;0.98;;;18.60;99.90;;;;;;5032634;28;20453;-65
2021/07/01 04:40:24;;;;;;;1.63;1.23;;;18.50;99.90;;;;;;5032582;28;20034;-65
2021/07/01 04:42:49;;;;;;;0.80;0.80;;;18.50;99.90;;;;;;5032477;28;20064;-65
2021/07/01 04:45:16;;;;;;;1.48;0.80;;;18.50;99.90;;;;;;5031587;28;20029;-67
2021/07/01 04:47:42;;;;;;;0.88;0.82;;;18.50;99.90;;;;;;5052243;28;20029;-65
2021/07/01 04:50:08;;;;;;;0.75;0.75;;;18.40;99.90;;;;;;5052163;28;20028;-65
2021/07/01 04:52:34;;;;;;;2.80;1.00;;;18.40;99.90;;;;;;5052277;28;20025;-65
2021/07/01 04:54:59;;;;;;;1.48;0.77;;;18.30;99.90;;;;;;5052039;28;20021;-66
2021/07/01 04:57:25;;;;;;;0.90;0.80;;;18.30;99.90;;;;;;5052379;28;20067;-64
2021/07/01 04:59:50;;;;;;;1.52;0.90;;;18.30;99.90;;;;;;5040208;28;20029;-65
2021/07/01 05:02:16;;;;;;;0.80;0.80;;;18.20;99.90;;;;;;5032087;28;20045;-64
2021/07/01 05:04:41;;;;;;;0.60;0.60;;;18.20;99.90;;;;;;5032001;28;20155;-67
2021/07/01 05:07:06;;;;;;;1.02;0.70;;;18.20;99.90;;;;;;5032175;28;20025;-65
2021/07/01 05:09:32;;;;;;;0.98;0.73;;;18.20;99.90;;;;;;5032271;28;20512;-66
2021/07/01 05:11:57;;;;;;;0.70;0.70;;;18.20;99.90;;;;;;5031842;28;20030;-67
2021/07/01 05:14:23;;;;;;;1.00;0.70;;;18.20;99.90;;;;;;5032211;28;20041;-66
2021/07/01 05:16:48;;;;;;;0.90;0.90;;;18.20;99.90;;;;;;5030869;28;20080;-67
2021/07/01 05:19:14;;;;;;;0.82;0.73;;;18.10;99.90;;;;;;5032021;28;20022;-66
2021/07/01 05:21:40;;;;;;;0.65;0.60;;;18.10;99.90;;;;;;5031980;28;20033;-66
2021/07/01 05:24:05;;;;;;;2.08;0.90;;;18.10;99.90;;;;;;5032084;28;20068;-66
2021/07/01 05:26:31;;;;;;;0.82;0.82;;;18.20;99.90;;;;;;5024439;28;20049;-67
2021/07/01 05:28:57;;;;;;;0.60;0.60;;;18.20;99.90;;;;;;5030902;28;20034;-65
2021/07/01 05:31:22;;;;;;;1.17;0.85;;;18.10;99.90;;;;;;5030976;28;20037;-65
2021/07/01 05:33:48;;;;;;;0.90;0.70;;;18.20;99.90;;;;;;5032296;28;20530;-64
2021/07/01 05:36:13;;;;;;;0.70;0.68;;;18.20;99.90;;;;;;5031780;28;20389;-66
2021/07/01 05:38:39;;;;;;;0.95;0.70;;;18.20;99.90;;;;;;5032105;28;20101;-63
2021/07/01 05:41:04;;;;;;;0.90;0.90;;;18.20;99.90;;;;;;5030746;28;20473;-64
2021/07/01 05:43:30;;;;;;;1.60;1.23;;;18.20;99.90;;;;;;5032166;28;20065;-65
2021/07/01 05:45:56;;;;;;;0.90;0.73;;;18.20;99.90;;;;;;5036664;28;20025;-65
2021/07/01 05:48:22;;;;;;;1.08;0.90;;;18.20;99.90;;;;;;5031948;28;20029;-65
2021/07/01 05:51:00;;;;;;;2.25;0.95;;;18.20;99.90;;;;;;5031896;28;20384;-65
2021/07/01 05:53:34;;;;;;;0.80;0.80;;;18.10;99.90;;;;;;5030727;28;20025;-65
2021/07/01 05:56:00;;;;;;;0.88;0.82;;;18.10;99.90;;;;;;5031202;28;20542;-65
2021/07/01 05:58:26;;;;;;;2.28;0.70;;;18.10;99.90;;;;;;5030767;28;20029;-65
2021/07/01 06:00:51;;;;;;;0.60;0.60;;;18.00;99.90;;;;;;5030497;28;20045;-65
2021/07/01 06:03:17;;;;;;;0.85;0.70;;;18.00;99.90;;;;;;5034424;28;20723;-63
2021/07/01 06:05:45;;;;;;;2.60;0.60;;;18.00;99.90;;;;;;5035157;28;20040;-65
2021/07/01 06:08:12;;;;;;;2.70;0.90;;;18.00;99.90;;;;;;5034835;28;20101;-66
2021/07/01 06:10:43;;;;;;;1.02;0.60;;;18.10;99.90;;;;;;5033263;28;20027;-64
2021/07/01 06:13:10;;;;;;;0.60;0.60;;;18.00;99.90;;;;;;5035326;28;20473;-65
2021/07/01 06:15:36;;;;;;;2.78;0.60;;;18.00;99.90;;;;;;5034288;28;20083;-64
2021/07/01 06:18:02;;;;;;;1.75;0.55;;;18.10;99.90;;;;;;5033920;28;20044;-66
2021/07/01 06:20:28;;;;;;;3.60;0.70;;;18.00;99.90;;;;;;5035109;28;20469;-65
2021/07/01 06:22:54;;;;;;;0.40;0.40;;;18.00;99.90;;;;;;5035002;28;20029;-67
2021/07/01 06:25:19;;;;;;;2.10;0.50;;;18.00;99.90;;;;;;5034694;28;20465;-68
2021/07/01 06:27:46;;;;;;;0.38;0.38;;;18.00;99.90;;;;;;5034725;28;20025;-68
2021/07/01 06:30:17;;;;;;;2.22;0.60;;;17.90;99.90;;;;;;5033939;28;20021;-67
2021/07/01 06:32:46;;;;;;;1.10;0.70;;;17.90;99.90;;;;;;5034955;28;20033;-68
2021/07/01 06:35:13;;;;;;;1.35;0.70;;;17.90;99.90;;;;;;5034634;28;20022;-67
2021/07/01 06:37:40;;;;;;;1.40;0.60;;;17.80;99.90;;;;;;5034983;28;20148;-68
2021/07/01 06:40:11;;;;;;;2.25;0.50;;;17.80;99.90;;;;;;5034722;28;20021;-68
2021/07/01 06:42:42;;;;;;;2.70;0.65;;;17.70;99.90;;;;;;5034844;28;20033;-67
2021/07/01 06:45:08;;;;;;;0.70;0.60;;;17.70;99.90;;;;;;5033751;28;20017;-67
2021/07/01 06:47:33;;;;;;;1.65;1.00;;;17.70;99.90;;;;;;5034494;28;20092;-68
2021/07/01 06:50:04;;;;;;;1.42;0.82;;;17.70;99.90;;;;;;5034463;28;20032;-68
2021/07/01 06:52:30;;;;;;;1.02;0.90;;;17.60;99.90;;;;;;5034430;28;20025;-68
2021/07/01 06:54:55;;;;;;;0.70;0.70;;;17.60;99.90;;;;;;5034604;28;20136;-68
2021/07/01 06:57:21;;;;;;;1.90;0.80;;;17.60;99.90;;;;;;5034372;28;20104;-68
2021/07/01 06:59:47;;;;;;;2.05;0.93;;;17.70;99.90;;;;;;5033635;28;20041;-66
2021/07/01 07:02:13;;;;;;;0.93;0.70;;;17.70;99.90;;;;;;5033939;28;20045;-67
2021/07/01 07:04:40;;;;;;;6.63;1.25;;;17.70;99.90;;;;;;5034184;28;20415;-67
2021/07/01 07:07:07;;;;;;;2.35;1.25;;;17.70;99.90;;;;;;5034150;28;20026;-67
2021/07/01 07:09:33;;;;;;;3.10;0.73;;;17.70;99.90;;;;;;5034253;28;20488;-68
2021/07/01 07:11:58;;;;;;;1.67;1.00;;;17.70;99.90;;;;;;5034206;28;20473;-67
2021/07/01 07:14:24;;;;;;;1.27;1.10;;;17.70;99.90;;;;;;5033027;28;20052;-68
2021/07/01 07:16:52;;;;;;;2.08;1.10;;;17.80;99.90;;;;;;5033109;28;20028;-68
2021/07/01 07:19:20;;;;;;;1.15;0.77;;;17.70;99.90;;;;;;5033836;28;20029;-66
2021/07/01 07:21:47;;;;;;;1.50;0.98;;;17.70;99.90;;;;;;5033970;28;20033;-66
2021/07/01 07:24:17;;;;;;;2.28;0.90;;;17.80;99.90;;;;;;5033822;28;20029;-68
2021/07/01 07:26:48;;;;;;;4.05;1.13;;;17.80;99.90;;;;;;5033807;28;20104;-68
2021/07/01 07:29:16;;;;;;;1.67;0.77;;;17.80;99.90;;;;;;5033873;28;20372;-68
2021/07/01 07:31:42;;;;;;;1.40;0.93;;;17.80;99.90;;;;;;5032807;28;20422;-67
2021/07/01 07:34:08;;;;;;;1.35;1.02;;;17.90;99.90;;;;;;5033755;28;20028;-68
2021/07/01 07:36:34;;;;;;;1.00;0.93;;;17.90;99.90;;;;;;5032206;28;20053;-68
2021/07/01 07:39:00;;;;;;;1.13;0.80;;;17.80;99.90;;;;;;5033842;28;20057;-67
2021/07/01 07:41:26;;;;;;;0.70;0.70;;;17.80;99.90;;;;;;5033436;28;20052;-68
2021/07/01 07:43:53;;;;;;;1.25;0.82;;;17.90;99.90;;;;;;5033592;28;20469;-67
2021/07/01 07:46:21;;;;;;;1.10;0.82;;;17.90;99.90;;;;;;5032299;28;20029;-68
2021/07/01 07:48:48;;;;;;;1.58;1.20;;;17.90;99.90;;;;;;5033557;28;20424;-67
2021/07/01 07:51:16;;;;;;;1.27;0.90;;;18.00;99.90;;;;;;5033241;28;20052;-68
2021/07/01 07:53:45;;;;;;;1.20;0.90;;;18.10;99.90;;;;;;5033463;28;20475;-68
2021/07/01 07:56:11;;;;;;;1.17;0.80;;;18.10;99.90;;;;;;5031960;28;20578;-68
2021/07/01 07:58:41;;;;;;;1.00;0.90;;;18.00;99.90;;;;;;5033261;28;20053;-68
2021/07/01 08:01:09;;;;;;;1.45;1.15;;;18.00;99.90;;;;;;5032210;28;20404;-66
2021/07/01 08:03:37;;;;;;;6.35;1.17;;;17.90;99.90;;;;;;5032973;28;20110;-68
2021/07/01 08:06:07;;;;;;;1.45;0.90;;;18.00;99.90;;;;;;5033083;28;20038;-67
2021/07/01 08:08:35;;;;;;;1.20;0.90;;;18.00;99.90;;;;;;5033226;28;20021;-68
2021/07/01 08:11:04;;;;;;;1.23;0.90;;;18.00;99.90;;;;;;5033162;28;20018;-68
2021/07/01 08:13:31;;;;;;;1.70;1.00;;;18.10;99.90;;;;;;5033004;28;20091;-67
2021/07/01 08:15:57;;;;;;;0.77;0.77;;;18.10;99.90;;;;;;5032105;28;20022;-67
2021/07/01 08:18:31;;;;;;;1.67;1.30;;;18.10;99.90;;;;;;5032929;28;20071;-68
2021/07/01 08:20:56;;;;;;;0.80;0.80;;;18.10;99.90;;;;;;5032960;28;20100;-67
2021/07/01 08:23:22;;;;;;;1.48;1.00;;;18.10;99.90;;;;;;5032783;28;20449;-68
2021/07/01 08:25:48;;;;;;;1.42;1.10;;;18.10;99.90;;;;;;5032446;28;20033;-66
2021/07/01 08:28:20;;;;;;;1.48;1.08;;;18.10;99.90;;;;;;5032830;28;20037;-68
2021/07/01 08:30:46;;;;;;;1.45;1.20;;;18.10;99.90;;;;;;5032094;28;20017;-67
2021/07/01 08:33:15;;;;;;;3.63;0.77;;;18.10;99.90;;;;;;5032754;28;20056;-67
2021/07/01 08:35:40;;;;;;;0.80;0.75;;;18.10;99.90;;;;;;5031286;28;20045;-68
2021/07/01 08:38:07;;;;;;;1.25;0.90;;;18.10;99.90;;;;;;5032729;28;20064;-67
2021/07/01 08:40:35;;;;;;;1.40;0.80;;;18.10;99.90;;;;;;5032533;28;20112;-68
2021/07/01 08:43:02;;;;;;;0.63;0.60;;;18.10;99.90;;;;;;5032683;28;20021;-67
2021/07/01 08:45:59;;;;;;;0.52;0.52;;;18.00;99.90;;;;;;5031381;28;20067;-68
2021/07/01 08:48:25;;;;;;;2.00;1.05;;;18.00;99.90;;;;;;5024888;28;20113;-68
2021/07/01 08:50:57;;;;;;;0.75;0.68;;;18.00;99.90;;;;;;5031061;28;20064;-65
2021/07/01 08:53:48;;;;;;;1.35;0.80;;;17.90;99.90;;;;;;5032420;28;20048;-67
2021/07/01 08:56:16;;;;;;;0.68;0.60;;;18.00;99.90;;;;;;5032545;28;20029;-68
2021/07/01 08:58:47;;;;;;;1.65;0.95;;;18.00;99.90;;;;;;5032461;28;20041;-68
2021/07/01 09:01:17;;;;;;;0.80;0.80;;;18.00;99.90;;;;;;5031434;28;20076;-67
2021/07/01 09:03:44;;;;;;;0.70;0.70;;;18.00;99.90;;;;;;5032245;28;20061;-68
2021/07/01 09:06:21;;;;;;;0.57;0.57;;;18.00;99.90;;;;;;5032336;28;20036;-68
2021/07/01 09:08:48;;;;;;;0.98;0.88;;;18.00;99.90;;;;;;5032358;28;20028;-68
2021/07/01 09:11:17;;;;;;;1.98;0.73;;;18.00;99.90;;;;;;5032435;28;20021;-67
2021/07/01 09:13:46;;;;;;;0.75;0.60;;;18.00;99.90;;;;;;5032095;28;20026;-68
2021/07/01 09:16:15;;;;;;;0.70;0.68;;;18.00;99.90;;;;;;5031376;28;20025;-68
2021/07/01 09:18:41;;;;;;;0.70;0.70;;;18.00;99.90;;;;;;5032303;28;20022;-68
2021/07/01 09:21:07;;;;;;;0.68;0.68;;;18.00;99.90;;;;;;5032250;28;20517;-68
2021/07/01 09:23:33;;;;;;;0.80;0.77;;;18.10;99.90;;;;;;5032084;28;20068;-66
2021/07/01 09:26:04;;;;;;;0.70;0.70;;;18.10;99.90;;;;;;5032244;28;20404;-66
2021/07/01 09:28:30;;;;;;;0.52;0.50;;;18.10;99.90;;;;;;5030989;28;20406;-66
2021/07/01 09:30:57;;;;;;;0.57;0.50;;;18.10;99.90;;;;;;5031615;28;20120;-68
2021/07/01 09:33:23;;;;;;;1.40;0.93;;;18.10;99.90;;;;;;5032099;28;20049;-68
2021/07/01 09:35:50;;;;;;;0.70;0.70;;;18.10;99.90;;;;;;5031916;28;20017;-68
2021/07/01 09:38:19;;;;;;;0.90;0.75;;;18.10;99.90;;;;;;5034807;28;20144;-68
2021/07/01 09:40:45;;;;;;;0.70;0.70;;;18.20;99.90;;;;;;5035869;28;20112;-68
2021/07/01 09:43:10;;;;;;;0.82;0.77;;;18.30;99.90;;;;;;5035795;28;20152;-68
2021/07/01 09:45:37;;;;;;;0.85;0.85;;;18.20;99.90;;;;;;5034815;28;20465;-68
2021/07/01 09:48:12;;;;;;;0.65;0.60;;;18.20;99.90;;;;;;5035791;28;20030;-68
2021/07/01 09:50:45;;;;;;;0.88;0.80;;;18.20;99.90;;;;;;5035758;28;20026;-67
2021/07/01 09:53:16;;;;;;;1.02;0.80;;;18.20;99.90;;;;;;5035648;28;20021;-67
2021/07/01 09:55:44;;;;;;;0.82;0.80;;;18.20;99.90;;;;;;5034291;28;20457;-68
2021/07/01 09:58:18;;;;;;;1.00;0.90;;;18.10;99.90;;;;;;5035621;28;20108;-67
2021/07/01 10:00:49;;;;;;;1.13;1.02;;;18.10;99.90;;;;;;5034566;28;20160;-67
2021/07/01 10:03:14;;;;;;;2.22;0.88;;;18.10;99.90;;;;;;5035574;28;20029;-68
2021/07/01 10:05:40;;;;;;;1.45;1.13;;;18.10;99.90;;;;;;5035309;28;20029;-66
2021/07/01 10:08:06;;;;;;;1.10;0.90;;;18.10;99.90;;;;;;5035152;28;20029;-68
2021/07/01 10:10:50;;;;;;;1.45;1.02;;;18.20;99.90;;;;;;5035452;28;20021;-67
2021/07/01 10:13:18;;;;;;;1.20;1.10;;;18.30;99.90;;;;;;5035375;28;20025;-67
2021/07/01 10:15:46;;;;;;;0.85;0.85;;;18.30;99.90;;;;;;5034379;28;20086;-67
2021/07/01 10:18:20;;;;;;;1.23;1.13;;;18.40;99.90;;;;;;5035169;28;20057;-68
2021/07/01 10:20:48;;;;;;;1.20;1.10;;;18.40;99.90;;;;;;5035141;28;20112;-68
2021/07/01 10:23:29;;;;;;;3.45;1.00;;;18.30;99.90;;;;;;5035032;28;20029;-68
2021/07/01 10:26:00;;;;;;;1.88;1.00;;;18.30;99.90;;;;;;5035109;28;20030;-68
2021/07/01 10:28:30;;;;;;;1.33;1.23;;;18.30;99.90;;;;;;5033609;28;20018;-66
2021/07/01 10:31:08;;;;;;;1.02;0.95;;;18.30;99.90;;;;;;5034124;28;20041;-67
2021/07/01 10:33:37;;;;;;;1.40;1.30;;;18.20;99.90;;;;;;5034881;28;20103;-68
2021/07/01 10:36:04;;;;;;;1.30;1.20;;;18.20;99.90;;;;;;5034879;28;20079;-68
2021/07/01 10:38:47;;;;;;;1.15;1.05;;;18.20;99.90;;;;;;5034583;28;20071;-68
2021/07/01 10:41:32;;;;;;;1.40;1.30;;;18.20;99.90;;;;;;5034946;28;20030;-68
2021/07/01 10:43:59;;;;;;;1.40;1.30;;;18.10;99.90;;;;;;5034736;28;20033;-68
2021/07/01 10:46:37;;;;;;;2.00;1.60;;;18.10;99.90;;;;;;5033646;28;20109;-68
2021/07/01 10:49:05;;;;;;;2.10;1.90;;;18.20;99.90;;;;;;5034473;28;20063;-66
2021/07/01 10:51:31;;;;;;;1.60;1.50;;;18.10;99.90;;;;;;5034615;28;20068;-66
2021/07/01 10:54:15;;;;;;;2.15;1.95;;;18.10;99.90;;;;;;5032987;28;20032;-68
2021/07/01 10:56:45;;;;;;;4.28;1.95;;;18.10;99.90;;;;;;5034470;28;20029;-68
2021/07/01 10:59:13;;;;;;;1.75;1.60;;;18.10;99.90;;;;;;5034557;28;20029;-68
2021/07/01 11:01:41;;;;;;;2.30;2.10;;;18.10;99.90;;;;;;5033488;28;20042;-68
2021/07/01 11:04:09;;;;;;;2.25;2.00;;;18.10;99.90;;;;;;5034293;28;20045;-68
2021/07/01 11:06:37;;;;;;;2.47;2.28;;;18.10;99.90;;;;;;5033969;28;20026;-67
2021/07/01 11:09:05;;;;;;;2.38;2.17;;;18.00;99.90;;;;;;5034232;28;20030;-68
2021/07/01 11:11:34;;;;;;;2.53;2.30;;;18.00;99.90;;;;;;5034305;28;20043;-66
2021/07/01 11:14:13;;;;;;;3.67;2.70;;;18.00;99.90;;;;;;5034302;28;20432;-67
2021/07/01 11:16:43;;;;;;;3.13;2.83;;;18.00;99.90;;;;;;5033231;28;20079;-66
2021/07/01 11:19:15;;;;;;;3.22;2.92;;;18.00;99.90;;;;;;5033826;28;20079;-68
2021/07/01 11:21:46;;;;;;;2.95;2.70;;;18.00;99.90;;;;;;5034085;28;20071;-68
2021/07/01 11:24:21;;;;;;;2.85;2.65;;;18.00;99.90;;;;;;5033817;28;20026;-68
2021/07/01 11:26:57;;;;;;;2.90;2.70;;;18.00;99.90;;;;;;5033948;28;20445;-67
2021/07/01 11:29:45;;;;;;;3.78;3.45;;;18.00;99.90;;;;;;5033070;28;20052;-68
2021/07/01 11:32:16;;;;;;;3.63;3.28;;;18.00;99.90;;;;;;5033988;28;20064;-68
2021/07/01 11:34:44;;;;;;;3.22;2.95;;;18.00;99.90;;;;;;5032453;28;20116;-68
2021/07/01 11:37:12;;;;;;;3.75;3.38;;;18.10;99.90;;;;;;5033712;28;20330;-68
2021/07/01 11:39:38;;;;;;;4.35;3.95;;;18.20;99.90;;;;;;5033486;28;20051;-67
2021/07/01 11:42:04;;;;;;;5.38;3.20;;;18.20;99.90;;;;;;5033643;28;20033;-67
2021/07/01 11:44:36;;;;;;;3.95;3.55;;;18.10;99.90;;;;;;5032714;28;20096;-68
2021/07/01 11:47:03;;;;;;;4.60;3.88;;;18.10;99.90;;;;;;5033458;28;20029;-67
2021/07/01 11:49:33;;;;;;;4.65;4.18;;;18.10;99.90;;;;;;5033483;28;20020;-67
2021/07/01 11:52:02;;;;;;;4.05;3.55;;;18.10;99.90;;;;;;5033556;28;20080;-67
2021/07/01 11:54:28;;;;;;;4.47;3.97;;;18.00;99.90;;;;;;5030782;28;20040;-68
2021/07/01 11:56:58;;;;;;;5.80;3.47;;;18.00;99.90;;;;;;5033127;28;20029;-64
2021/07/01 11:59:29;;;;;;;4.28;3.65;;;18.00;99.90;;;;;;5031977;28;20029;-68
2021/07/01 12:01:57;;;;;;;4.50;4.10;;;17.90;99.90;;;;;;5032885;28;20433;-67
2021/07/01 12:04:35;;;;;;;3.55;3.25;;;17.90;99.90;;;;;;5033003;28;20037;-68
2021/07/01 12:07:09;;;;;;;4.07;3.67;;;17.90;99.90;;;;;;5031515;28;20029;-66
2021/07/01 12:09:41;;;;;;;4.00;3.60;;;18.00;99.90;;;;;;5032920;28;20068;-68
2021/07/01 12:12:14;;;;;;;4.53;4.13;;;18.00;99.90;;;;;;5033257;28;20373;-68
2021/07/01 12:14:42;;;;;;;4.15;3.75;;;18.00;99.90;;;;;;5031996;28;20515;-68
2021/07/01 12:17:08;;;;;;;4.20;3.85;;;18.10;99.90;;;;;;5032960;28;20067;-68
2021/07/01 12:19:49;;;;;;;4.97;4.47;;;18.10;99.90;;;;;;5032763;28;20025;-67
2021/07/01 12:22:43;;;;;;;5.22;4.72;;;18.10;99.90;;;;;;5033002;28;20421;-67
2021/07/01 12:25:33;;;;;;;4.35;3.92;;;18.20;99.90;;;;;;5031257;28;20364;-67
2021/07/01 12:28:05;;;;;;;7.53;5.47;;;18.20;99.90;;;;;;5031667;28;20401;-68
2021/07/01 12:30:54;;;;;;;4.70;4.28;;;18.20;99.90;;;;;;5031909;28;20021;-67
2021/07/01 12:33:38;;;;;;;10.48;5.20;;;18.20;99.90;;;;;;5031472;28;20018;-68
2021/07/01 12:36:09;;;;;;;6.32;5.45;;;18.20;99.90;;;;;;5032674;28;20076;-68
2021/07/01 12:38:36;;;;;;;5.30;4.80;;;18.20;99.90;;;;;;5032708;28;20032;-68
2021/07/01 12:41:05;;;;;;;7.22;6.53;;;18.30;99.90;;;;;;5032530;28;20018;-68
2021/07/01 12:43:43;;;;;;;7.07;6.20;;;18.40;99.90;;;;;;5032664;28;20036;-65
2021/07/01 12:46:10;;;;;;;7.57;6.85;;;18.50;99.90;;;;;;5030301;28;20104;-67
2021/07/01 12:48:39;;;;;;;6.25;4.80;;;18.60;99.90;;;;;;5032452;28;20323;-69